Time;durP1;ratioP1;P1;durP2;ratioP2;P2;SDS_P1;SDS_P2;PMS_P1;PMS_P2;Temp;Humidity;BMP_temperature;BMP_pressure;BME280_temperature;BME280_humidity;BME280_pressure;Samples;Min_cycle;Max_cycle;Signal;HPM_P1;HPM_P2
2021/03/13 00:00:32;;;;;;;0.50;0.40;;;3.90;99.90;;;;;;4980090;28;20431;-90
2021/03/13 00:03:01;;;;;;;0.47;0.37;;;4.10;99.90;;;;;;4991784;28;20454;-91
2021/03/13 00:05:30;;;;;;;0.50;0.30;;;4.20;99.90;;;;;;4984152;28;20439;-90
2021/03/13 00:07:57;;;;;;;0.60;0.40;;;4.20;99.90;;;;;;4979198;28;20450;-91
2021/03/13 00:10:24;;;;;;;22.33;10.23;;;4.10;99.90;;;;;;4979578;28;20466;-89
2021/03/13 00:12:52;;;;;;;3.83;1.03;;;4.10;99.90;;;;;;4979037;28;20446;-89
2021/03/13 00:15:20;;;;;;;2.67;0.70;;;4.10;99.90;;;;;;4979977;28;20442;-91
2021/03/13 00:17:48;;;;;;;1.57;0.70;;;5.00;99.90;;;;;;4979887;28;20961;-90
2021/03/13 00:20:24;;;;;;;2.73;0.80;;;4.30;99.90;;;;;;4990442;28;20469;-89
2021/03/13 00:22:52;;;;;;;0.83;0.43;;;4.40;99.90;;;;;;4995979;28;20452;-88
2021/03/13 00:25:20;;;;;;;1.00;0.50;;;4.30;99.90;;;;;;4983850;28;20452;-89
2021/03/13 00:27:48;;;;;;;0.70;0.57;;;4.40;99.90;;;;;;4983525;28;20474;-89
2021/03/13 00:30:17;;;;;;;0.60;0.50;;;4.30;99.90;;;;;;4982998;28;20450;-88
2021/03/13 00:32:47;;;;;;;0.90;0.50;;;4.40;99.90;;;;;;4982869;28;20438;-88
2021/03/13 00:35:16;;;;;;;1.50;0.70;;;4.30;99.90;;;;;;4981959;28;20454;-90
2021/03/13 00:37:43;;;;;;;1.80;0.80;;;4.40;99.90;;;;;;4982097;28;20544;-89
2021/03/13 00:40:12;;;;;;;0.80;0.67;;;5.10;99.90;;;;;;4982290;28;20469;-88
2021/03/13 00:42:40;;;;;;;5.43;1.60;;;4.50;99.90;;;;;;4982711;28;20450;-89
2021/03/13 00:45:08;;;;;;;1.10;1.00;;;4.50;99.90;;;;;;4982756;28;20819;-89
2021/03/13 00:47:36;;;;;;;0.97;0.80;;;4.50;99.90;;;;;;4980657;28;20454;-88
2021/03/13 00:50:08;;;;;;;1.80;0.77;;;4.30;99.90;;;;;;4982364;28;20442;-90
2021/03/13 00:52:36;;;;;;;1.70;0.30;;;4.80;99.90;;;;;;4981840;28;20937;-89
2021/03/13 00:55:05;;;;;;;1.10;0.50;;;4.60;99.90;;;;;;4982060;28;20565;-89
2021/03/13 00:57:33;;;;;;;1.30;0.73;;;4.60;99.90;;;;;;4982119;28;20494;-89
2021/03/13 01:00:00;;;;;;;1.17;0.50;;;;;;;;;;4981331;28;20446;-90
2021/03/13 01:02:26;;;;;;;0.50;0.30;;;4.60;99.90;;;;;;4981201;28;20450;-89
2021/03/13 01:04:54;;;;;;;0.40;0.20;;;4.60;99.90;;;;;;4979261;28;20450;-89
2021/03/13 01:07:22;;;;;;;0.57;0.37;;;4.50;99.90;;;;;;4981604;28;20473;-89
2021/03/13 01:09:48;;;;;;;0.30;0.30;;;4.50;99.90;;;;;;4980578;28;20473;-89
2021/03/13 01:12:16;;;;;;;0.77;0.30;;;4.40;99.90;;;;;;4983219;28;20465;-89
2021/03/13 01:14:44;;;;;;;1.00;0.50;;;4.30;99.90;;;;;;4982572;28;20482;-90
2021/03/13 01:17:11;;;;;;;1.13;0.50;;;;;;;;;;4982420;28;20442;-90
2021/03/13 01:19:38;;;;;;;0.30;0.20;;;4.20;99.90;;;;;;4981666;28;20455;-91
2021/03/13 01:22:05;;;;;;;1.90;0.67;;;4.40;99.90;;;;;;4982719;28;20485;-91
2021/03/13 01:24:32;;;;;;;1.20;0.57;;;4.20;99.90;;;;;;4980343;28;20942;-91
2021/03/13 01:27:00;;;;;;;0.50;0.30;;;4.10;99.90;;;;;;4983329;28;20493;-91
2021/03/13 01:29:26;;;;;;;0.40;0.30;;;4.30;99.90;;;;;;4982347;28;20454;-92
2021/03/13 01:31:54;;;;;;;0.60;0.40;;;4.10;99.90;;;;;;4987474;28;20482;-87
2021/03/13 01:34:21;;;;;;;0.50;0.20;;;4.10;99.90;;;;;;4979960;28;20541;-89
2021/03/13 01:36:47;;;;;;;1.63;0.43;;;4.10;99.90;;;;;;4980567;28;20513;-90
2021/03/13 01:39:13;;;;;;;1.07;0.60;;;4.00;99.90;;;;;;4974988;28;20459;-91
2021/03/13 01:41:44;;;;;;;2.57;0.63;;;4.00;99.90;;;;;;4976671;28;20454;-89
2021/03/13 01:44:10;;;;;;;0.63;0.43;;;3.90;99.90;;;;;;4976847;28;20458;-89
2021/03/13 01:46:36;;;;;;;1.00;0.43;;;4.00;99.90;;;;;;4976372;28;20450;-90
2021/03/13 01:49:03;;;;;;;1.63;0.60;;;4.00;99.90;;;;;;4974774;28;20443;-90
2021/03/13 01:51:30;;;;;;;0.80;0.30;;;4.00;99.90;;;;;;4975828;28;20968;-88
2021/03/13 01:53:56;;;;;;;1.03;0.30;;;4.00;99.90;;;;;;4977328;28;20500;-90
2021/03/13 01:56:23;;;;;;;0.50;0.40;;;3.90;99.90;;;;;;4976414;28;20447;-90
2021/03/13 01:58:50;;;;;;;0.70;0.50;;;3.90;99.90;;;;;;4974332;28;20489;-90
2021/03/13 02:01:16;;;;;;;1.90;0.40;;;3.80;99.90;;;;;;4976240;28;20465;-89
2021/03/13 02:03:43;;;;;;;1.70;0.80;;;3.90;99.90;;;;;;4974832;28;20439;-90
2021/03/13 02:06:09;;;;;;;0.93;0.53;;;3.90;99.90;;;;;;4976371;28;20463;-88
2021/03/13 02:08:42;;;;;;;1.50;0.43;;;3.90;99.90;;;;;;4975768;28;20852;-89
2021/03/13 02:11:17;;;;;;;0.57;0.43;;;3.90;99.90;;;;;;4975906;28;20452;-90
2021/03/13 02:13:51;;;;;;;1.17;0.40;;;3.90;99.90;;;;;;4972912;28;20605;-89
2021/03/13 02:16:27;;;;;;;0.90;0.50;;;3.80;99.90;;;;;;4976167;28;20481;-90
2021/03/13 02:19:08;;;;;;;1.00;0.50;;;3.80;99.90;;;;;;4976262;28;20434;-92
2021/03/13 02:21:40;;;;;;;1.73;0.70;;;3.90;99.90;;;;;;4974823;28;20457;-91
2021/03/13 02:24:37;;;;;;;0.60;0.50;;;3.80;99.90;;;;;;4976065;28;20443;-90
2021/03/13 02:27:09;;;;;;;1.63;0.60;;;3.70;99.90;;;;;;4975972;28;20474;-89
2021/03/13 02:29:41;;;;;;;1.57;0.80;;;3.70;99.90;;;;;;4975663;28;20950;-90
2021/03/13 02:32:11;;;;;;;2.67;0.90;;;3.70;99.90;;;;;;4976693;28;20489;-90
2021/03/13 02:34:42;;;;;;;1.73;0.77;;;3.70;99.90;;;;;;4974889;28;20506;-89
2021/03/13 02:37:13;;;;;;;1.80;0.40;;;3.80;99.90;;;;;;4975625;28;20949;-92
2021/03/13 02:39:43;;;;;;;1.40;1.27;;;3.90;99.90;;;;;;4975656;28;20430;-90
2021/03/13 02:42:10;;;;;;;2.80;0.83;;;3.90;99.90;;;;;;4975038;28;20458;-88
2021/03/13 02:44:38;;;;;;;1.60;0.60;;;3.90;99.90;;;;;;4975451;28;20494;-89
2021/03/13 02:47:07;;;;;;;2.83;0.80;;;4.00;99.90;;;;;;4975219;28;20446;-89
2021/03/13 02:49:36;;;;;;;1.77;0.70;;;4.00;99.90;;;;;;4973181;28;20460;-90
2021/03/13 02:52:03;;;;;;;1.03;0.87;;;4.10;99.90;;;;;;4975440;28;20462;-91
2021/03/13 02:54:31;;;;;;;1.03;0.40;;;4.30;99.90;;;;;;4972828;28;20501;-90
2021/03/13 02:56:58;;;;;;;2.10;0.87;;;4.60;99.90;;;;;;4975519;28;20445;-89
2021/03/13 02:59:27;;;;;;;1.37;0.70;;;5.10;99.90;;;;;;4975367;28;20820;-91
2021/03/13 03:01:56;;;;;;;2.53;0.80;;;5.00;99.90;;;;;;4975571;28;20453;-90
2021/03/13 03:04:23;;;;;;;7.00;1.10;;;5.00;99.90;;;;;;4974554;28;20458;-89
2021/03/13 03:06:51;;;;;;;0.80;0.50;;;5.00;99.90;;;;;;4974822;28;20462;-89
2021/03/13 03:09:19;;;;;;;5.83;1.13;;;5.10;99.90;;;;;;4975595;28;20919;-90
2021/03/13 03:11:46;;;;;;;5.83;1.00;;;5.10;99.90;;;;;;4957273;28;20824;-93
2021/03/13 03:14:15;;;;;;;4.43;1.00;;;5.00;99.90;;;;;;4975276;28;20494;-91
2021/03/13 03:16:45;;;;;;;2.23;0.60;;;5.00;99.90;;;;;;4975218;28;20473;-90
2021/03/13 03:19:15;;;;;;;4.00;1.00;;;5.10;99.90;;;;;;4975057;28;20804;-90
2021/03/13 03:21:42;;;;;;;8.93;1.00;;;5.10;99.90;;;;;;4974869;28;20555;-91
2021/03/13 03:24:10;;;;;;;2.20;1.37;;;5.10;99.90;;;;;;4975214;28;20469;-90
2021/03/13 03:26:36;;;;;;;3.73;0.97;;;5.10;99.90;;;;;;4974919;28;20569;-92
2021/03/13 03:29:03;;;;;;;3.03;1.07;;;5.10;99.90;;;;;;4972523;28;20450;-91
2021/03/13 03:31:29;;;;;;;4.70;0.70;;;5.20;99.90;;;;;;4975090;28;20462;-89
2021/03/13 03:33:56;;;;;;;0.90;0.70;;;5.10;99.90;;;;;;4975099;28;20481;-90
2021/03/13 03:36:23;;;;;;;4.57;0.87;;;5.20;99.90;;;;;;4974489;28;20508;-91
2021/03/13 03:38:49;;;;;;;3.73;0.70;;;5.20;99.90;;;;;;4972554;28;20454;-91
2021/03/13 03:41:16;;;;;;;1.33;0.60;;;5.30;99.90;;;;;;4975881;28;20521;-91
2021/03/13 03:43:45;;;;;;;2.30;0.63;;;5.30;99.90;;;;;;4972225;28;20458;-90
2021/03/13 03:46:13;;;;;;;11.07;1.10;;;6.10;99.90;;;;;;4974362;28;20443;-89
2021/03/13 03:48:42;;;;;;;0.53;0.33;;;5.40;99.90;;;;;;4974799;28;20459;-90
2021/03/13 03:51:10;;;;;;;0.97;0.60;;;5.40;99.90;;;;;;4974024;28;20458;-90
2021/03/13 03:53:41;;;;;;;1.30;0.90;;;5.30;99.90;;;;;;4974723;28;20516;-91
2021/03/13 03:56:08;;;;;;;2.20;0.90;;;5.40;99.90;;;;;;4976274;28;20452;-90
2021/03/13 03:58:38;;;;;;;3.70;0.90;;;5.40;99.90;;;;;;4978482;28;20478;-91
2021/03/13 04:01:06;;;;;;;3.13;0.77;;;5.40;99.90;;;;;;4978681;28;20520;-89
2021/03/13 04:03:34;;;;;;;4.63;1.00;;;5.50;99.90;;;;;;4978731;28;20442;-89
2021/03/13 04:06:01;;;;;;;0.90;0.60;;;5.50;99.90;;;;;;4975047;28;20476;-91
2021/03/13 04:08:30;;;;;;;2.60;0.50;;;5.60;99.90;;;;;;4978371;28;20454;-90
2021/03/13 04:10:59;;;;;;;3.47;0.80;;;5.60;99.90;;;;;;4978492;28;20941;-91
2021/03/13 04:13:26;;;;;;;4.13;0.97;;;5.70;99.90;;;;;;4975914;28;20532;-90
2021/03/13 04:15:52;;;;;;;0.50;0.50;;;5.60;99.90;;;;;;4978367;28;20930;-93
2021/03/13 04:18:20;;;;;;;2.10;0.70;;;5.60;99.90;;;;;;4978294;28;20454;-90
2021/03/13 04:20:48;;;;;;;1.10;0.70;;;5.60;99.90;;;;;;4978187;28;20435;-91
2021/03/13 04:23:17;;;;;;;2.73;0.40;;;5.70;99.90;;;;;;4978987;28;20441;-91
2021/03/13 04:25:46;;;;;;;1.10;0.53;;;5.70;99.90;;;;;;4978750;28;20470;-89
2021/03/13 04:28:13;;;;;;;1.53;0.53;;;5.80;99.90;;;;;;4978583;28;20431;-91
2021/03/13 04:30:41;;;;;;;1.47;0.53;;;5.90;99.90;;;;;;4975175;28;20512;-89
2021/03/13 04:33:08;;;;;;;0.97;0.87;;;6.00;99.90;;;;;;4978520;28;20453;-91
2021/03/13 04:35:34;;;;;;;3.80;0.73;;;5.90;99.90;;;;;;4980005;28;20457;-89
2021/03/13 04:38:02;;;;;;;4.93;0.73;;;5.90;99.90;;;;;;4983536;28;20438;-90
2021/03/13 04:40:29;;;;;;;0.80;0.50;;;5.90;99.90;;;;;;4982766;28;20450;-91
2021/03/13 04:42:55;;;;;;;2.77;0.90;;;5.80;99.90;;;;;;4984064;28;20860;-91
2021/03/13 04:45:23;;;;;;;0.70;0.37;;;5.90;99.90;;;;;;4983261;28;20465;-91
2021/03/13 04:47:50;;;;;;;1.10;0.57;;;5.90;99.90;;;;;;4981180;28;20457;-89
2021/03/13 04:50:19;;;;;;;1.23;0.63;;;5.90;99.90;;;;;;4977259;28;20450;-92
2021/03/13 04:52:45;;;;;;;0.60;0.30;;;5.90;99.90;;;;;;4979808;28;20461;-89
2021/03/13 04:55:12;;;;;;;2.10;0.50;;;5.90;99.90;;;;;;4977639;28;20478;-91
2021/03/13 04:57:39;;;;;;;0.40;0.30;;;5.90;99.90;;;;;;4977627;28;20486;-92
2021/03/13 05:00:09;;;;;;;2.80;0.60;;;5.90;99.90;;;;;;4977379;28;20458;-90
2021/03/13 05:02:37;;;;;;;1.27;0.63;;;5.90;99.90;;;;;;4977378;28;20457;-91
2021/03/13 05:05:04;;;;;;;1.17;0.37;;;5.80;99.90;;;;;;4976584;28;20460;-92
2021/03/13 05:07:30;;;;;;;1.47;0.40;;;6.00;99.90;;;;;;4977162;28;20461;-90
2021/03/13 05:09:56;;;;;;;1.13;0.57;;;7.40;99.90;;;;;;4975146;28;20957;-92
2021/03/13 05:12:23;;;;;;;1.57;1.47;;;6.10;99.90;;;;;;4977141;28;20454;-91
2021/03/13 05:14:49;;;;;;;2.93;0.73;;;6.10;99.90;;;;;;4977385;28;20529;-91
2021/03/13 05:17:16;;;;;;;0.60;0.40;;;6.10;99.90;;;;;;4977532;28;20451;-91
2021/03/13 05:19:43;;;;;;;1.83;0.67;;;6.10;99.90;;;;;;4974100;28;20446;-90
2021/03/13 05:22:10;;;;;;;0.53;0.53;;;6.10;99.90;;;;;;4977305;28;20431;-91
2021/03/13 05:24:36;;;;;;;1.13;0.47;;;6.20;99.90;;;;;;4975482;28;20505;-91
2021/03/13 05:27:03;;;;;;;1.63;0.50;;;6.40;99.90;;;;;;4977954;28;20446;-90
2021/03/13 05:29:29;;;;;;;0.60;0.30;;;6.40;99.90;;;;;;4973202;28;20942;-91
2021/03/13 05:31:56;;;;;;;1.60;0.80;;;6.50;99.90;;;;;;4978092;28;20579;-92
2021/03/13 05:34:22;;;;;;;0.90;0.50;;;6.40;99.90;;;;;;4971205;28;20493;-91
2021/03/13 05:36:49;;;;;;;2.33;0.40;;;6.50;99.90;;;;;;4974624;28;20450;-91
2021/03/13 05:39:16;;;;;;;2.77;0.40;;;6.40;99.90;;;;;;4976535;28;20929;-91
2021/03/13 05:41:43;;;;;;;2.47;0.70;;;6.40;99.90;;;;;;4976904;28;20454;-90
2021/03/13 05:44:12;;;;;;;0.40;0.30;;;6.40;99.90;;;;;;4976869;28;20462;-90
2021/03/13 05:46:42;;;;;;;6.20;0.93;;;6.50;99.90;;;;;;4977054;28;20442;-90
2021/03/13 05:49:10;;;;;;;0.73;0.40;;;6.50;99.90;;;;;;4975262;28;20468;-90
2021/03/13 05:51:37;;;;;;;5.10;0.60;;;6.50;99.90;;;;;;4975724;28;20978;-91
2021/03/13 05:54:06;;;;;;;0.77;0.40;;;6.60;99.90;;;;;;4972844;28;20493;-89
2021/03/13 05:56:33;;;;;;;1.47;0.40;;;6.50;99.90;;;;;;4976344;28;20450;-91
2021/03/13 05:59:00;;;;;;;1.70;0.40;;;6.60;99.90;;;;;;4976132;28;20635;-89
2021/03/13 06:01:28;;;;;;;0.67;0.40;;;6.60;99.90;;;;;;4976405;28;20470;-90
2021/03/13 06:03:55;;;;;;;3.60;0.70;;;6.60;99.90;;;;;;4976037;28;20818;-90
2021/03/13 06:06:22;;;;;;;2.80;0.70;;;6.60;99.90;;;;;;4975179;28;20453;-90
2021/03/13 06:08:49;;;;;;;1.87;0.57;;;6.50;99.90;;;;;;4975848;28;20508;-89
2021/03/13 06:11:19;;;;;;;0.77;0.40;;;6.60;99.90;;;;;;4975932;28;20434;-89
2021/03/13 06:13:46;;;;;;;1.93;0.70;;;6.50;99.90;;;;;;4976176;28;21036;-89
2021/03/13 06:16:13;;;;;;;0.70;0.50;;;6.60;99.90;;;;;;4975747;28;20596;-89
2021/03/13 06:18:56;;;;;;;0.83;0.40;;;6.50;99.90;;;;;;4975419;28;20867;-89
2021/03/13 06:21:24;;;;;;;1.63;0.70;;;6.70;99.90;;;;;;4974175;28;20450;-90
2021/03/13 06:23:57;;;;;;;4.33;0.70;;;6.70;99.90;;;;;;4975696;28;20465;-89
2021/03/13 06:26:26;;;;;;;0.80;0.40;;;6.80;99.90;;;;;;4976346;28;20454;-89
2021/03/13 06:28:53;;;;;;;2.77;0.70;;;6.80;99.90;;;;;;4977807;28;20942;-88
2021/03/13 06:31:28;;;;;;;1.07;0.43;;;6.80;99.90;;;;;;4995473;28;20445;-90
2021/03/13 06:33:55;;;;;;;0.40;0.30;;;6.80;99.90;;;;;;4993295;28;20532;-89
2021/03/13 06:36:23;;;;;;;0.90;0.50;;;6.90;99.90;;;;;;4984968;28;20457;-90
2021/03/13 06:38:50;;;;;;;4.23;0.50;;;7.00;99.90;;;;;;4977443;28;20844;-89
2021/03/13 06:41:18;;;;;;;0.40;0.30;;;7.00;99.90;;;;;;4975493;28;20524;-91
2021/03/13 06:43:46;;;;;;;3.77;1.10;;;7.10;99.90;;;;;;4975273;28;20560;-89
2021/03/13 06:46:14;;;;;;;5.60;0.50;;;7.30;99.90;;;;;;4975300;28;20455;-90
2021/03/13 06:48:43;;;;;;;1.63;0.50;;;7.40;99.90;;;;;;4975635;28;20962;-90
2021/03/13 06:51:22;;;;;;;0.80;0.40;;;7.50;99.90;;;;;;4987658;28;20442;-91
2021/03/13 06:54:12;;;;;;;2.77;0.60;;;7.40;99.90;;;;;;4992137;28;20580;-91
2021/03/13 06:56:43;;;;;;;4.90;1.07;;;7.30;99.90;;;;;;4994824;28;20869;-91
2021/03/13 06:59:23;;;;;;;2.60;1.33;;;7.30;99.90;;;;;;4994198;28;20484;-89
2021/03/13 07:01:58;;;;;;;4.30;0.60;;;7.40;99.90;;;;;;4991647;28;20449;-89
2021/03/13 07:04:37;;;;;;;10.80;1.37;;;7.60;99.90;;;;;;4993590;28;20453;-89
2021/03/13 07:07:04;;;;;;;0.70;0.40;;;7.60;99.90;;;;;;4994248;28;20469;-89
2021/03/13 07:09:51;;;;;;;2.80;0.60;;;7.50;99.90;;;;;;4994445;28;20449;-88
2021/03/13 07:12:29;;;;;;;6.83;1.13;;;7.50;99.90;;;;;;4994239;28;20931;-89
2021/03/13 07:14:57;;;;;;;1.33;0.60;;;7.60;99.90;;;;;;4993930;28;20508;-89
2021/03/13 07:17:24;;;;;;;0.83;0.47;;;8.00;99.90;;;;;;4991982;28;20787;-87
2021/03/13 07:19:51;;;;;;;1.90;0.40;;;7.80;99.90;;;;;;4993337;28;20527;-91
2021/03/13 07:22:18;;;;;;;2.30;0.60;;;7.80;99.90;;;;;;4993979;28;20508;-88
2021/03/13 07:24:44;;;;;;;1.93;0.73;;;7.80;99.90;;;;;;4993648;28;20465;-90
2021/03/13 07:27:12;;;;;;;0.70;0.40;;;7.80;99.90;;;;;;4995244;28;20454;-89
2021/03/13 07:29:40;;;;;;;2.20;0.60;;;7.90;99.90;;;;;;4991946;28;20453;-91
2021/03/13 07:32:13;;;;;;;1.23;0.47;;;8.20;99.90;;;;;;4994100;28;20453;-89
2021/03/13 07:34:41;;;;;;;2.23;0.40;;;8.20;99.90;;;;;;4993208;28;20580;-87
2021/03/13 07:37:09;;;;;;;0.50;0.40;;;8.30;99.90;;;;;;4994296;28;20453;-88
2021/03/13 07:39:40;;;;;;;0.50;0.40;;;8.40;99.90;;;;;;4994166;28;20453;-90
2021/03/13 07:42:12;;;;;;;1.33;0.50;;;8.30;99.90;;;;;;4994386;28;20461;-94
2021/03/13 07:44:40;;;;;;;0.67;0.37;;;8.10;99.90;;;;;;4994205;28;20937;-93
2021/03/13 07:47:10;;;;;;;0.50;0.30;;;8.10;99.90;;;;;;4991614;28;20476;-89
2021/03/13 07:49:37;;;;;;;0.60;0.40;;;8.10;99.90;;;;;;4993860;28;20844;-89
2021/03/13 07:52:06;;;;;;;1.60;0.57;;;8.20;99.90;;;;;;4993973;28;20449;-92
2021/03/13 07:54:37;;;;;;;0.60;0.40;;;8.50;99.90;;;;;;4995134;28;20496;-89
2021/03/13 07:57:10;;;;;;;1.60;0.53;;;8.40;99.90;;;;;;4998622;28;20498;-88
2021/03/13 07:59:44;;;;;;;0.60;0.33;;;8.60;99.90;;;;;;5004821;28;20450;-89
2021/03/13 08:02:41;;;;;;;1.20;0.40;;;8.50;99.90;;;;;;4992433;28;20448;-89
2021/03/13 08:05:10;;;;;;;1.53;0.40;;;8.40;99.90;;;;;;4970113;28;20462;-91
2021/03/13 08:08:03;;;;;;;2.23;0.60;;;8.40;99.90;;;;;;4974349;28;20458;-91
2021/03/13 08:10:53;;;;;;;0.63;0.30;;;8.60;99.90;;;;;;4974562;28;20549;-88
2021/03/13 08:13:54;;;;;;;1.07;0.50;;;8.90;99.90;;;;;;4974502;28;21033;-88
2021/03/13 08:16:43;;;;;;;0.80;0.47;;;8.80;99.90;;;;;;4933903;29;20837;-90
2021/03/13 08:19:27;;;;;;;0.53;0.30;;;8.80;99.90;;;;;;4950505;29;20894;-88
2021/03/13 08:22:12;;;;;;;2.10;0.43;;;8.80;99.90;;;;;;4981948;28;20457;-87
2021/03/13 08:24:40;;;;;;;0.67;0.40;;;8.70;99.90;;;;;;4997542;28;20932;-87
2021/03/13 08:27:08;;;;;;;0.50;0.30;;;8.80;99.90;;;;;;4994994;28;20855;-87
2021/03/13 08:29:52;;;;;;;2.00;1.03;;;8.80;99.90;;;;;;4992693;28;20461;-87
2021/03/13 08:33:03;;;;;;;0.73;0.30;;;8.90;99.90;;;;;;4992865;28;20445;-88
2021/03/13 08:35:39;;;;;;;0.83;0.50;;;9.00;99.90;;;;;;4991936;28;20489;-88
2021/03/13 08:38:06;;;;;;;1.87;0.90;;;8.80;99.90;;;;;;4992928;28;20453;-90
2021/03/13 08:40:32;;;;;;;1.83;0.40;;;9.20;99.90;;;;;;4994206;28;20453;-87
2021/03/13 08:42:59;;;;;;;0.50;0.30;;;9.30;99.90;;;;;;4996069;28;20472;-86
2021/03/13 08:45:34;;;;;;;0.90;0.40;;;9.70;99.90;;;;;;4996082;28;20463;-86
2021/03/13 08:48:00;;;;;;;0.50;0.40;;;9.90;99.80;;;;;;4996272;28;20530;-86
2021/03/13 08:50:54;;;;;;;1.63;0.70;;;9.60;99.90;;;;;;4995246;28;20549;-86
2021/03/13 08:53:34;;;;;;;2.00;0.50;;;9.40;99.90;;;;;;4995876;28;20831;-88
2021/03/13 08:56:01;;;;;;;4.60;0.50;;;9.30;99.90;;;;;;4995915;28;20820;-88
2021/03/13 08:58:44;;;;;;;2.50;2.30;;;9.30;99.90;;;;;;4995778;28;20495;-86
2021/03/13 09:01:15;;;;;;;1.40;0.50;;;9.40;99.90;;;;;;4996092;28;20445;-86
2021/03/13 09:03:46;;;;;;;1.17;0.40;;;9.30;99.90;;;;;;4995851;28;20442;-86
2021/03/13 09:06:13;;;;;;;2.37;0.53;;;9.40;99.80;;;;;;4993450;28;20445;-88
2021/03/13 09:08:40;;;;;;;1.23;0.40;;;9.50;99.90;;;;;;4996068;28;20454;-88
2021/03/13 09:11:06;;;;;;;1.30;0.60;;;9.80;99.90;;;;;;4996472;28;20932;-88
2021/03/13 09:13:33;;;;;;;1.17;0.87;;;9.60;99.30;;;;;;4996049;28;20940;-89
2021/03/13 09:15:59;;;;;;;1.03;0.50;;;9.40;99.00;;;;;;4996301;28;20450;-89
2021/03/13 09:18:25;;;;;;;2.10;0.83;;;9.90;99.30;;;;;;4996072;28;20461;-90
2021/03/13 09:20:52;;;;;;;1.00;0.80;;;;;;;;;;4995680;28;20445;-88
2021/03/13 09:23:19;;;;;;;0.80;0.80;;;9.90;98.80;;;;;;4995599;28;20473;-88
2021/03/13 09:25:46;;;;;;;1.27;0.50;;;9.80;99.00;;;;;;4995807;28;20457;-87
2021/03/13 09:28:12;;;;;;;1.07;0.43;;;9.60;98.60;;;;;;4965755;28;20492;-89
2021/03/13 09:30:39;;;;;;;0.80;0.50;;;9.50;98.80;;;;;;4996044;28;20941;-88
2021/03/13 09:33:05;;;;;;;2.00;0.77;;;9.60;98.90;;;;;;4995312;28;20449;-88
2021/03/13 09:35:32;;;;;;;1.80;0.30;;;9.80;99.20;;;;;;4994894;28;20489;-89
2021/03/13 09:37:58;;;;;;;0.60;0.40;;;9.70;98.50;;;;;;4995704;28;20453;-90
2021/03/13 09:40:26;;;;;;;6.43;0.60;;;9.70;98.10;;;;;;4995549;28;20449;-89
2021/03/13 09:42:54;;;;;;;1.63;0.50;;;10.00;98.10;;;;;;4995644;28;20465;-90
2021/03/13 09:45:22;;;;;;;0.80;0.40;;;10.00;98.20;;;;;;4995934;28;20458;-91
2021/03/13 09:47:54;;;;;;;1.03;0.30;;;10.20;97.30;;;;;;4995728;28;20462;-90
2021/03/13 09:50:26;;;;;;;1.33;0.53;;;10.50;97.30;;;;;;4953115;29;20518;-90
2021/03/13 09:52:53;;;;;;;0.90;0.30;;;10.40;97.20;;;;;;4950405;28;20451;-91
2021/03/13 09:55:21;;;;;;;0.97;0.50;;;10.00;97.50;;;;;;4954000;29;20505;-86
2021/03/13 09:57:50;;;;;;;0.50;0.40;;;10.00;99.90;;;;;;4950641;29;20494;-86
2021/03/13 10:00:19;;;;;;;1.53;0.60;;;9.90;98.50;;;;;;4954149;29;20458;-86
2021/03/13 10:02:46;;;;;;;0.53;0.30;;;9.70;98.90;;;;;;4954042;29;20459;-88
2021/03/13 10:05:13;;;;;;;0.93;0.50;;;9.70;98.90;;;;;;4953081;29;20466;-87
2021/03/13 10:07:40;;;;;;;0.50;0.33;;;9.60;99.20;;;;;;4961016;28;20472;-87
2021/03/13 10:10:08;;;;;;;0.83;0.50;;;9.70;99.20;;;;;;4994670;28;20453;-87
2021/03/13 10:12:37;;;;;;;1.13;0.37;;;9.90;99.50;;;;;;4995293;28;20454;-90
2021/03/13 10:15:20;;;;;;;0.60;0.50;;;9.80;99.10;;;;;;4995199;28;20500;-87
2021/03/13 10:17:55;;;;;;;1.77;0.40;;;9.60;99.30;;;;;;5002388;28;20464;-88
2021/03/13 10:20:24;;;;;;;1.70;0.40;;;10.20;98.90;;;;;;5001055;28;20441;-87
2021/03/13 10:22:50;;;;;;;1.80;0.50;;;9.60;99.30;;;;;;4994394;28;20816;-87
2021/03/13 10:25:17;;;;;;;1.60;0.40;;;9.50;99.50;;;;;;4994883;28;20457;-89
2021/03/13 10:27:43;;;;;;;0.87;0.33;;;9.60;99.30;;;;;;4992998;28;20449;-86
2021/03/13 10:30:11;;;;;;;3.53;0.50;;;9.60;99.60;;;;;;4994469;28;20453;-86
2021/03/13 10:32:40;;;;;;;1.23;0.83;;;9.60;99.20;;;;;;4994822;28;20499;-87
2021/03/13 10:35:13;;;;;;;0.93;0.70;;;9.60;99.30;;;;;;4993240;28;20500;-87
2021/03/13 10:37:41;;;;;;;2.57;0.40;;;9.60;99.50;;;;;;4993973;28;20504;-85
2021/03/13 10:40:10;;;;;;;1.87;0.40;;;9.70;99.30;;;;;;4993905;28;20472;-85
2021/03/13 10:42:36;;;;;;;1.83;0.50;;;9.80;99.40;;;;;;4993953;28;20544;-86
2021/03/13 10:45:18;;;;;;;1.03;0.50;;;9.80;99.30;;;;;;4993875;28;20453;-84
2021/03/13 10:47:46;;;;;;;0.53;0.30;;;9.70;99.10;;;;;;4993008;28;20442;-87
2021/03/13 10:50:14;;;;;;;1.90;0.43;;;9.70;99.00;;;;;;4992561;28;20507;-87
2021/03/13 10:52:42;;;;;;;1.63;0.50;;;9.70;98.90;;;;;;4990924;28;20442;-89
2021/03/13 10:55:09;;;;;;;0.90;0.40;;;9.80;98.90;;;;;;4994646;28;20506;-85
2021/03/13 10:57:35;;;;;;;1.47;0.40;;;9.70;98.60;;;;;;4996356;28;20989;-89
2021/03/13 11:00:06;;;;;;;1.93;0.30;;;9.70;98.50;;;;;;4995521;28;20453;-88
2021/03/13 11:02:32;;;;;;;1.17;0.40;;;9.70;98.80;;;;;;4994047;28;20917;-89
2021/03/13 11:05:01;;;;;;;0.70;0.40;;;9.60;99.30;;;;;;5008597;28;20511;-93
2021/03/13 11:07:32;;;;;;;2.10;0.60;;;9.80;98.20;;;;;;5012715;28;21141;-88
2021/03/13 11:09:58;;;;;;;3.57;0.40;;;9.80;98.10;;;;;;5000654;28;20445;-88
2021/03/13 11:12:24;;;;;;;0.93;0.50;;;;;;;;;;4993786;28;20479;-91
2021/03/13 11:14:51;;;;;;;4.93;0.57;;;9.90;97.70;;;;;;4995086;28;20465;-89
2021/03/13 11:17:17;;;;;;;1.63;0.40;;;9.90;97.70;;;;;;4993530;28;20442;-89
2021/03/13 11:19:43;;;;;;;0.80;0.50;;;9.90;97.80;;;;;;4990434;28;20925;-86
2021/03/13 11:22:11;;;;;;;1.37;0.60;;;9.90;98.10;;;;;;4989401;28;20465;-91
2021/03/13 11:24:39;;;;;;;0.70;0.30;;;10.00;97.10;;;;;;4984623;28;20493;-87
2021/03/13 11:27:06;;;;;;;0.60;0.30;;;10.00;97.20;;;;;;4991649;28;20937;-91
2021/03/13 11:29:32;;;;;;;2.30;0.40;;;10.00;97.20;;;;;;4994355;28;20870;-88
2021/03/13 11:31:58;;;;;;;0.80;0.40;;;10.10;97.40;;;;;;4994479;28;20441;-92
2021/03/13 11:34:25;;;;;;;0.50;0.30;;;;;;;;;;4993923;28;20453;-91
2021/03/13 11:36:52;;;;;;;0.40;0.30;;;10.10;96.90;;;;;;4994531;28;20448;-91
2021/03/13 11:39:20;;;;;;;0.70;0.40;;;10.10;97.20;;;;;;4994735;28;20835;-91
2021/03/13 11:41:46;;;;;;;0.80;0.50;;;10.40;97.30;;;;;;4995689;28;20512;-88
2021/03/13 11:44:12;;;;;;;0.50;0.30;;;10.10;97.10;;;;;;4997227;28;20481;-87
2021/03/13 11:46:39;;;;;;;1.47;0.40;;;10.10;97.10;;;;;;4995564;28;20500;-86
2021/03/13 11:49:06;;;;;;;1.17;0.47;;;10.10;97.00;;;;;;4993874;28;20516;-89
2021/03/13 11:51:32;;;;;;;1.33;0.70;;;10.10;96.90;;;;;;4992647;28;20445;-90
2021/03/13 11:53:59;;;;;;;1.13;1.03;;;10.20;96.90;;;;;;4994143;28;20917;-91
2021/03/13 11:56:26;;;;;;;0.60;0.40;;;10.30;96.90;;;;;;4993554;28;20454;-90
2021/03/13 11:58:52;;;;;;;0.50;0.40;;;10.30;97.00;;;;;;4993798;28;20995;-87
2021/03/13 12:01:19;;;;;;;0.80;0.40;;;10.40;96.60;;;;;;4975900;28;20453;-90
2021/03/13 12:03:45;;;;;;;0.80;0.30;;;10.20;96.80;;;;;;4993141;28;20515;-88
2021/03/13 12:06:12;;;;;;;0.40;0.30;;;10.10;97.00;;;;;;4992340;28;20457;-90
2021/03/13 12:08:38;;;;;;;0.93;0.50;;;10.10;97.30;;;;;;4994382;28;20781;-91
2021/03/13 12:11:04;;;;;;;0.40;0.30;;;10.00;97.40;;;;;;4994928;28;20437;-90
2021/03/13 12:13:32;;;;;;;1.07;0.50;;;10.00;97.90;;;;;;4994992;28;20504;-90
2021/03/13 12:15:58;;;;;;;0.57;0.50;;;9.90;99.30;;;;;;4995720;28;20971;-90
2021/03/13 12:18:25;;;;;;;0.63;0.40;;;10.10;99.80;;;;;;4997972;28;20452;-89
2021/03/13 12:20:51;;;;;;;2.70;2.03;;;9.80;99.90;;;;;;4996125;28;20956;-89
2021/03/13 12:23:17;;;;;;;1.63;1.13;;;9.80;99.90;;;;;;4997325;28;20463;-90
2021/03/13 12:25:44;;;;;;;1.87;1.23;;;9.70;99.90;;;;;;5000809;28;20493;-90
2021/03/13 12:28:10;;;;;;;2.43;1.80;;;10.30;99.90;;;;;;5000954;28;20468;-90
2021/03/13 12:30:37;;;;;;;1.70;1.07;;;9.20;99.90;;;;;;4998067;28;20449;-90
2021/03/13 12:33:04;;;;;;;2.60;1.90;;;9.30;99.90;;;;;;5000310;28;20816;-91
2021/03/13 12:35:30;;;;;;;1.43;1.00;;;9.30;99.90;;;;;;5018341;28;20457;-91
2021/03/13 12:37:57;;;;;;;1.17;0.67;;;;;;;;;;5008511;28;20461;-91
2021/03/13 12:40:23;;;;;;;1.63;0.63;;;9.30;99.90;;;;;;4998072;28;20445;-91
2021/03/13 12:42:49;;;;;;;3.77;0.30;;;9.50;99.90;;;;;;4997477;28;20861;-88
2021/03/13 12:45:16;;;;;;;0.80;0.57;;;9.50;99.90;;;;;;4996999;28;20515;-89
2021/03/13 12:47:44;;;;;;;0.87;0.40;;;9.70;99.90;;;;;;4997217;28;20459;-89
2021/03/13 12:50:11;;;;;;;0.80;0.40;;;9.50;99.90;;;;;;4998043;28;20483;-89
2021/03/13 12:52:37;;;;;;;1.10;0.80;;;9.30;99.90;;;;;;4997221;28;20948;-88
2021/03/13 12:55:05;;;;;;;0.67;0.50;;;9.20;99.90;;;;;;4996428;28;20445;-88
2021/03/13 12:57:31;;;;;;;0.50;0.30;;;9.10;99.90;;;;;;4997048;28;20481;-90
2021/03/13 12:59:57;;;;;;;0.50;0.40;;;9.10;99.90;;;;;;4995477;28;20446;-88
2021/03/13 13:02:23;;;;;;;1.30;0.70;;;8.90;99.90;;;;;;4996864;28;20781;-88
2021/03/13 13:04:54;;;;;;;0.83;0.60;;;9.00;99.90;;;;;;4995526;28;20493;-90
2021/03/13 13:07:20;;;;;;;0.70;0.70;;;8.70;99.90;;;;;;4996192;28;20803;-89